Time;durP1;ratioP1;P1;durP2;ratioP2;P2;SDS_P1;SDS_P2;PMS_P1;PMS_P2;Temp;Humidity;BMP_temperature;BMP_pressure;BME280_temperature;BME280_humidity;BME280_pressure;Samples;Min_cycle;Max_cycle;Signal;HPM_P1;HPM_P2
2024/03/10 00:00:16;;;;;;;52.78;27.00;;;;;;;6.89;100.00;98897.78;5046116;28;20077;-61
2024/03/10 00:02:46;;;;;;;57.53;24.33;;;;;;;6.88;100.00;98902.50;5049510;28;20045;-61
2024/03/10 00:05:13;;;;;;;59.15;26.00;;;;;;;6.86;100.00;98893.81;5047016;28;20046;-62
2024/03/10 00:07:45;;;;;;;59.55;22.95;;;;;;;6.87;100.00;98895.41;5038513;28;20041;-61
2024/03/10 00:10:17;;;;;;;57.67;26.15;;;;;;;6.87;100.00;98894.59;5048255;28;20056;-62
2024/03/10 00:12:49;;;;;;;59.13;26.27;;;;;;;6.85;100.00;98896.94;5043388;28;20045;-62
2024/03/10 00:15:19;;;;;;;58.30;26.55;;;;;;;6.82;100.00;98886.66;5036363;28;20045;-62
2024/03/10 00:17:48;;;;;;;56.85;27.40;;;;;;;6.82;100.00;98898.44;5026681;28;20043;-61
2024/03/10 00:20:15;;;;;;;68.43;29.00;;;;;;;6.81;100.00;98894.09;5038504;28;20051;-62
2024/03/10 00:22:43;;;;;;;54.00;25.20;;;;;;;6.79;100.00;98890.94;5049614;28;20049;-62
2024/03/10 00:25:15;;;;;;;55.08;26.00;;;;;;;6.77;100.00;98882.25;5045710;28;20056;-62
2024/03/10 00:27:43;;;;;;;58.35;25.95;;;;;;;6.77;100.00;98900.72;5044575;28;20045;-61
2024/03/10 00:30:12;;;;;;;55.88;26.10;;;;;;;6.74;100.00;98891.22;5042093;28;20048;-64
2024/03/10 00:32:39;;;;;;;53.38;25.30;;;;;;;6.71;100.00;98906.50;5045490;28;20045;-62
2024/03/10 00:35:07;;;;;;;54.15;25.08;;;;;;;6.69;100.00;98905.28;5049188;28;20053;-62
2024/03/10 00:37:35;;;;;;;52.78;25.42;;;;;;;6.70;100.00;98899.41;5048029;28;20060;-61
2024/03/10 00:40:06;;;;;;;61.30;25.80;;;;;;;6.69;100.00;98895.09;5043507;28;20053;-61
2024/03/10 00:42:33;;;;;;;53.55;25.38;;;;;;;6.70;100.00;98895.84;5044946;28;20049;-61
2024/03/10 00:45:03;;;;;;;55.15;23.80;;;;;;;6.70;100.00;98901.34;5046170;28;20164;-62
2024/03/10 00:47:30;;;;;;;58.85;26.83;;;;;;;6.72;100.00;98904.56;5032316;28;20045;-62
2024/03/10 00:49:58;;;;;;;57.05;26.08;;;;;;;6.70;100.00;98907.66;5041504;28;20060;-61
2024/03/10 00:52:26;;;;;;;61.53;26.88;;;;;;;6.69;100.00;98895.09;5038174;28;20049;-61
2024/03/10 00:54:53;;;;;;;55.85;24.63;;;;;;;6.69;100.00;98888.78;5044634;28;20048;-61
2024/03/10 00:57:20;;;;;;;60.88;26.55;;;;;;;6.68;100.00;98893.47;5045123;28;20048;-61
2024/03/10 00:59:48;;;;;;;52.60;24.15;;;;;;;6.70;100.00;98893.91;5049166;28;20055;-61
2024/03/10 01:02:15;;;;;;;50.00;23.73;;;;;;;6.68;100.00;98885.22;5040620;28;20416;-61
2024/03/10 01:04:43;;;;;;;51.20;23.35;;;;;;;6.68;100.00;98887.97;5031811;28;20150;-61
2024/03/10 01:07:10;;;;;;;47.38;22.80;;;;;;;6.66;100.00;98884.81;5037973;28;20050;-61
2024/03/10 01:09:38;;;;;;;42.78;19.38;;;;;;;6.64;100.00;98894.59;5048796;28;20049;-61
2024/03/10 01:12:05;;;;;;;53.22;24.52;;;;;;;6.65;100.00;98898.91;5053520;28;20056;-61
2024/03/10 01:14:33;;;;;;;51.78;23.80;;;;;;;6.65;100.00;98894.19;5059947;28;20052;-61
2024/03/10 01:17:04;;;;;;;47.72;21.63;;;;;;;6.65;100.00;98904.41;5056762;28;20045;-61
2024/03/10 01:19:31;;;;;;;51.80;23.42;;;;;;;6.66;100.00;98912.31;5059218;28;20060;-61
2024/03/10 01:21:59;;;;;;;50.30;20.42;;;;;;;6.65;100.00;98902.44;5050638;28;20048;-60
2024/03/10 01:24:26;;;;;;;52.20;25.05;;;;;;;6.66;100.00;98906.00;5043339;28;20049;-61
2024/03/10 01:26:53;;;;;;;58.70;23.80;;;;;;;6.65;100.00;98901.66;5046627;28;20525;-61
2024/03/10 01:29:22;;;;;;;44.38;22.60;;;;;;;6.65;100.00;98893.41;5048932;28;20064;-61
2024/03/10 01:31:50;;;;;;;58.85;23.17;;;;;;;6.66;100.00;98895.81;5047135;28;20052;-61
2024/03/10 01:34:19;;;;;;;54.92;25.70;;;;;;;6.65;100.00;98902.44;5047851;28;20049;-61
2024/03/10 01:36:47;;;;;;;50.75;22.88;;;;;;;6.66;100.00;98906.81;5032592;28;20103;-61
2024/03/10 01:39:14;;;;;;;52.35;22.60;;;;;;;6.67;100.00;98907.59;5041289;28;20507;-61
2024/03/10 01:41:42;;;;;;;50.10;21.58;;;;;;;6.66;100.00;98917.81;5048357;28;20041;-61
2024/03/10 01:44:09;;;;;;;42.63;21.52;;;;;;;6.64;100.00;98911.88;5048217;28;20045;-61
2024/03/10 01:46:37;;;;;;;55.88;23.90;;;;;;;6.65;100.00;98916.19;5054142;28;20688;-61
2024/03/10 01:49:06;;;;;;;58.53;23.75;;;;;;;6.65;100.00;98909.91;5050374;28;20052;-62
2024/03/10 01:51:36;;;;;;;51.95;24.05;;;;;;;6.66;100.00;98914.25;5033781;28;20045;-61
2024/03/10 01:54:06;;;;;;;49.83;24.10;;;;;;;6.65;100.00;98907.16;5056184;28;20041;-61
2024/03/10 01:56:33;;;;;;;50.03;23.08;;;;;;;6.65;100.00;98909.91;5047574;28;20072;-61
2024/03/10 01:59:01;;;;;;;53.28;23.95;;;;;;;6.64;100.00;98906.38;5050026;28;20554;-61
2024/03/10 02:01:29;;;;;;;51.35;25.23;;;;;;;6.65;100.00;98905.19;5043206;28;20394;-61
2024/03/10 02:03:57;;;;;;;49.72;23.92;;;;;;;6.64;100.00;98897.34;5046511;28;20045;-61
2024/03/10 02:06:25;;;;;;;61.92;25.08;;;;;;;6.65;100.00;98899.69;5034262;28;20570;-61
2024/03/10 02:08:54;;;;;;;53.38;25.20;;;;;;;6.67;100.00;98902.09;5045671;28;20605;-61
2024/03/10 02:11:22;;;;;;;56.08;24.75;;;;;;;6.67;100.00;98902.88;5041886;28;20537;-61
2024/03/10 02:13:49;;;;;;;52.95;23.50;;;;;;;6.68;100.00;98903.69;5025930;28;20613;-61
2024/03/10 02:16:17;;;;;;;46.10;22.73;;;;;;;6.67;100.00;98902.88;5037557;28;20057;-61
2024/03/10 02:18:44;;;;;;;44.40;24.02;;;;;;;6.68;100.00;98896.22;5052427;28;20053;-61
2024/03/10 02:21:14;;;;;;;51.60;24.02;;;;;;;6.69;100.00;98891.53;5047644;28;20077;-62
2024/03/10 02:23:55;;;;;;;52.38;23.90;;;;;;;6.70;100.00;98901.34;5056577;28;20049;-61
2024/03/10 02:26:28;;;;;;;58.60;23.33;;;;;;;6.67;100.00;98896.59;5034027;28;20049;-61
2024/03/10 02:29:14;;;;;;;52.67;25.92;;;;;;;6.66;100.00;98884.81;5051451;28;20406;-61
2024/03/10 02:48:37;;;;;;;50.70;24.27;;;;;;;6.64;100.00;98870.63;5034263;28;20047;-62
2024/03/10 02:51:04;;;;;;;52.78;25.88;;;;;;;6.65;100.00;98880.47;5037061;28;20037;-61
2024/03/10 02:53:31;;;;;;;63.45;24.88;;;;;;;6.66;100.00;98873.81;5034648;28;20060;-61
2024/03/10 02:55:58;;;;;;;56.17;26.42;;;;;;;6.67;100.00;98871.84;5047959;28;20052;-61
2024/03/10 02:58:26;;;;;;;51.72;24.70;;;;;;;6.69;100.00;98878.59;5051498;28;20511;-61
2024/03/10 03:00:53;;;;;;;54.53;23.75;;;;;;;6.67;100.00;98864.38;5119711;23;20048;-59
2024/03/10 03:03:21;;;;;;;59.33;24.73;;;;;;;6.67;100.00;98860.88;5026765;28;20060;-57
2024/03/10 03:05:48;;;;;;;51.75;25.50;;;;;;;6.67;100.00;98864.38;5009204;28;20049;-59
2024/03/10 03:08:15;;;;;;;54.78;22.30;;;;;;;6.68;100.00;98860.47;5026853;28;20048;-57
2024/03/10 03:10:43;;;;;;;67.90;25.48;;;;;;;6.68;100.00;98870.69;5026696;28;20324;-57
2024/03/10 03:13:10;;;;;;;50.08;20.75;;;;;;;6.67;100.00;98864.38;5008451;28;20399;-59
2024/03/10 03:15:38;;;;;;;47.30;22.08;;;;;;;6.67;100.00;98869.13;5009957;28;20144;-58
2024/03/10 03:18:07;;;;;;;56.53;21.48;;;;;;;6.66;100.00;98875.75;5026761;28;20418;-59
2024/03/10 03:20:35;;;;;;;52.03;22.80;;;;;;;6.66;100.00;98882.06;5026487;28;20045;-57
2024/03/10 03:23:04;;;;;;;50.35;25.13;;;;;;;6.64;100.00;98873.38;5026663;28;20045;-58
2024/03/10 03:25:32;;;;;;;57.63;23.27;;;;;;;6.64;100.00;98865.13;5025651;28;20052;-59
2024/03/10 03:28:00;;;;;;;49.88;23.52;;;;;;;6.65;100.00;98871.41;5026020;28;20053;-58
2024/03/10 03:30:27;;;;;;;46.78;23.45;;;;;;;6.64;100.00;98876.13;5025522;28;20053;-60
2024/03/10 03:32:55;;;;;;;55.75;22.90;;;;;;;6.65;100.00;98866.72;5027107;28;20571;-58
2024/03/10 03:35:23;;;;;;;58.47;27.10;;;;;;;6.65;100.00;98872.22;5026127;28;20053;-55
2024/03/10 03:37:52;;;;;;;52.33;22.92;;;;;;;6.65;100.00;98877.72;5026668;28;20461;-56
2024/03/10 03:40:19;;;;;;;54.38;25.40;;;;;;;6.66;100.00;98873.81;5024878;28;20053;-59
2024/03/10 03:42:46;;;;;;;60.58;24.63;;;;;;;6.67;100.00;98875.38;5026341;28;20041;-58
2024/03/10 03:45:15;;;;;;;56.05;24.67;;;;;;;6.66;100.00;98879.31;5025364;28;20378;-61
2024/03/10 03:47:44;;;;;;;58.30;25.70;;;;;;;6.65;100.00;98877.72;5026117;28;20056;-59
2024/03/10 03:50:15;;;;;;;56.75;27.42;;;;;;;6.65;100.00;98876.91;5026394;28;20400;-60
2024/03/10 03:52:42;;;;;;;59.05;25.85;;;;;;;6.65;100.00;98879.66;5026011;28;20057;-58
2024/03/10 03:55:13;;;;;;;49.08;23.20;;;;;;;6.66;100.00;98884.81;5026738;28;20049;-59
2024/03/10 03:57:40;;;;;;;64.78;25.52;;;;;;;6.65;100.00;98880.47;5026404;28;20042;-59
2024/03/10 04:00:12;;;;;;;56.80;24.95;;;;;;;6.67;100.00;98880.09;5026758;28;20538;-59
2024/03/10 04:02:40;;;;;;;60.00;25.35;;;;;;;6.67;100.00;98880.88;5025400;28;20041;-59
2024/03/10 04:05:08;;;;;;;70.57;27.73;;;;;;;6.68;100.00;98870.69;5026493;28;20041;-59
2024/03/10 04:07:36;;;;;;;56.65;25.33;;;;;;;6.68;100.00;98874.22;5026409;28;20050;-58
2024/03/10 04:10:03;;;;;;;56.58;24.30;;;;;;;6.66;100.00;98876.56;5026707;28;20054;-57
2024/03/10 04:12:34;;;;;;;67.47;29.55;;;;;;;6.66;100.00;98884.00;5027235;28;20107;-59
2024/03/10 04:15:01;;;;;;;66.78;27.00;;;;;;;6.66;100.00;98884.00;5026864;28;20050;-59
2024/03/10 04:17:29;;;;;;;54.65;25.10;;;;;;;6.64;100.00;98881.63;5027163;28;20049;-59
2024/03/10 04:19:56;;;;;;;51.33;26.05;;;;;;;6.63;100.00;98882.78;5026629;28;20358;-59
2024/03/10 04:22:24;;;;;;;50.45;23.65;;;;;;;6.60;100.00;98880.75;5030438;28;20057;-57
2024/03/10 04:24:51;;;;;;;67.75;28.55;;;;;;;6.57;100.00;98870.47;5012669;28;20064;-54
2024/03/10 04:27:18;;;;;;;64.45;24.98;;;;;;;6.55;100.00;98875.56;5030166;28;20041;-57
2024/03/10 04:29:46;;;;;;;56.95;27.08;;;;;;;6.55;100.00;98869.25;5030055;28;20056;-56
2024/03/10 04:32:13;;;;;;;68.35;27.92;;;;;;;6.54;100.00;98881.44;5029022;28;20529;-55
2024/03/10 04:34:40;;;;;;;76.70;30.63;;;;;;;6.55;100.00;98872.00;5029485;28;20041;-58
2024/03/10 04:37:08;;;;;;;55.58;23.98;;;;;;;6.55;100.00;98872.00;5030102;28;20052;-58
2024/03/10 04:39:36;;;;;;;63.25;28.98;;;;;;;6.56;100.00;98879.09;5029904;28;20049;-58
2024/03/10 04:42:04;;;;;;;58.53;27.63;;;;;;;6.56;100.00;98877.16;5011244;28;20049;-57
2024/03/10 04:44:31;;;;;;;60.08;26.33;;;;;;;6.55;100.00;98878.31;5011649;28;20057;-57
2024/03/10 04:46:59;;;;;;;61.20;25.38;;;;;;;6.56;100.00;98879.91;5029404;28;20407;-57
2024/03/10 04:49:27;;;;;;;58.58;26.02;;;;;;;6.56;100.00;98871.66;5028695;28;20053;-57
2024/03/10 04:51:54;;;;;;;69.18;27.92;;;;;;;6.56;100.00;98881.84;5029755;28;20061;-58
2024/03/10 04:54:22;;;;;;;69.95;27.23;;;;;;;6.56;100.00;98879.09;5029742;28;20049;-58
2024/03/10 04:56:49;;;;;;;67.38;28.38;;;;;;;6.55;100.00;98878.31;5030283;28;20037;-58
2024/03/10 04:59:18;;;;;;;62.60;28.83;;;;;;;6.57;100.00;98878.72;5029783;28;20057;-58
2024/03/10 05:01:46;;;;;;;75.72;28.63;;;;;;;6.58;100.00;98894.06;5030194;28;20053;-57
2024/03/10 05:04:14;;;;;;;66.60;30.95;;;;;;;6.58;100.00;98887.78;5028133;28;20042;-58
2024/03/10 05:06:41;;;;;;;68.47;27.20;;;;;;;6.58;100.00;98882.28;5029840;28;20567;-59
2024/03/10 05:09:08;;;;;;;60.67;27.92;;;;;;;6.58;100.00;98887.78;5008884;28;20510;-52
2024/03/10 05:11:36;;;;;;;70.50;28.13;;;;;;;6.58;100.00;98883.09;5011301;28;20124;-57
2024/03/10 05:14:04;;;;;;;67.38;30.20;;;;;;;6.58;100.00;98883.09;5027622;28;20053;-57
2024/03/10 05:16:32;;;;;;;79.38;31.73;;;;;;;6.58;100.00;98888.59;5029331;28;20049;-57
2024/03/10 05:18:59;;;;;;;71.70;30.77;;;;;;;6.57;100.00;98883.44;5028753;28;20042;-55
2024/03/10 05:21:26;;;;;;;67.15;29.73;;;;;;;6.56;100.00;98884.59;5021925;28;20053;-59
2024/03/10 05:23:53;;;;;;;73.55;31.38;;;;;;;6.56;100.00;98879.91;5025101;28;20061;-56
2024/03/10 05:26:21;;;;;;;76.40;29.15;;;;;;;6.56;100.00;98885.41;5027996;28;20046;-58
2024/03/10 05:28:48;;;;;;;77.13;29.92;;;;;;;6.55;100.00;98881.06;5028461;28;20042;-57
2024/03/10 05:31:31;;;;;;;68.45;30.92;;;;;;;6.54;100.00;98884.94;5027472;28;20045;-55
2024/03/10 05:34:00;;;;;;;73.10;27.02;;;;;;;6.54;100.00;98887.69;5035126;28;20501;-52
2024/03/10 05:36:29;;;;;;;74.10;31.92;;;;;;;6.54;100.00;98898.69;5024785;28;20056;-58
2024/03/10 05:38:56;;;;;;;60.78;27.25;;;;;;;6.54;100.00;98897.94;5029084;28;20403;-53
2024/03/10 05:41:23;;;;;;;69.70;28.92;;;;;;;6.54;100.00;98904.19;5028383;28;20499;-55
2024/03/10 05:43:51;;;;;;;72.20;33.33;;;;;;;6.53;100.00;98894.38;5028604;28;20634;-55
2024/03/10 05:46:18;;;;;;;71.65;27.38;;;;;;;6.55;100.00;98908.53;5027901;28;20049;-55
2024/03/10 05:48:47;;;;;;;69.95;30.75;;;;;;;6.55;100.00;98894.00;5027412;28;20049;-55
2024/03/10 05:51:15;;;;;;;74.75;31.20;;;;;;;6.56;100.00;98906.59;5027440;28;20048;-54
2024/03/10 05:53:42;;;;;;;68.25;30.35;;;;;;;6.57;100.00;98897.97;5027999;28;20052;-55
2024/03/10 05:56:10;;;;;;;84.53;32.28;;;;;;;6.57;100.00;98886.97;5027741;28;20046;-56
2024/03/10 05:58:38;;;;;;;78.13;33.13;;;;;;;6.59;100.00;98889.38;5027881;28;20045;-55
2024/03/10 06:01:07;;;;;;;74.85;32.55;;;;;;;6.60;100.00;98885.47;5026169;28;20064;-58
2024/03/10 06:03:35;;;;;;;69.45;32.80;;;;;;;6.59;100.00;98892.91;5028129;28;20511;-54
2024/03/10 06:06:02;;;;;;;75.90;29.85;;;;;;;6.59;100.00;98887.41;5026884;28;20052;-55
2024/03/10 06:08:30;;;;;;;68.15;30.85;;;;;;;6.58;100.00;98888.59;5031202;28;20045;-57
2024/03/10 06:10:58;;;;;;;67.95;31.58;;;;;;;6.59;100.00;98892.91;5009622;28;20486;-58
2024/03/10 06:13:25;;;;;;;82.38;32.53;;;;;;;6.61;100.00;98901.59;5028464;28;20042;-57
2024/03/10 06:15:53;;;;;;;69.20;30.92;;;;;;;6.62;100.00;98892.19;5026707;28;20049;-57
2024/03/10 06:18:31;;;;;;;74.93;33.35;;;;;;;6.63;100.00;98899.28;5028120;28;20050;-60
2024/03/10 06:26:31;;;;;;;79.05;32.50;;;;;;;6.65;100.00;98893.41;5026999;28;20053;-58
2024/03/10 06:29:00;;;;;;;75.55;34.03;;;;;;;6.67;100.00;98902.09;5027405;28;20046;-57
2024/03/10 06:31:28;;;;;;;67.63;33.17;;;;;;;6.68;100.00;98898.97;5026943;28;20053;-58
2024/03/10 06:33:57;;;;;;;66.60;31.98;;;;;;;6.68;100.00;98895.44;5027863;28;20491;-54
2024/03/10 06:36:24;;;;;;;70.70;30.77;;;;;;;6.68;100.00;98904.47;5026952;28;20053;-58
2024/03/10 06:38:52;;;;;;;67.28;29.40;;;;;;;6.68;100.00;98898.97;5027449;28;20049;-55
2024/03/10 06:41:20;;;;;;;61.33;28.30;;;;;;;6.67;100.00;98894.63;5029201;28;20061;-58
2024/03/10 06:43:49;;;;;;;71.97;31.40;;;;;;;6.69;100.00;98911.59;5030680;28;20038;-56
2024/03/10 06:46:17;;;;;;;71.35;28.85;;;;;;;6.69;100.00;98900.59;5026775;28;20506;-53
2024/03/10 06:48:44;;;;;;;63.17;25.70;;;;;;;6.70;100.00;98899.41;5026801;28;20041;-58
2024/03/10 06:51:11;;;;;;;81.65;30.13;;;;;;;6.70;100.00;98904.09;5026427;28;20041;-58
2024/03/10 06:53:39;;;;;;;74.82;31.38;;;;;;;6.70;100.00;98902.16;5026223;28;20426;-58
2024/03/10 06:56:06;;;;;;;71.05;29.25;;;;;;;6.71;100.00;98906.50;5027246;28;20045;-57
2024/03/10 06:58:33;;;;;;;77.60;31.02;;;;;;;6.72;100.00;98913.56;5026377;28;20068;-57
2024/03/10 07:01:07;;;;;;;73.80;30.33;;;;;;;6.74;100.00;98913.22;5008550;28;20069;-51
2024/03/10 07:03:35;;;;;;;68.75;27.88;;;;;;;6.74;100.00;98914.03;5039412;28;20041;-54
2024/03/10 07:06:06;;;;;;;68.90;27.67;;;;;;;6.73;100.00;98906.94;5026951;28;20054;-54
2024/03/10 07:08:34;;;;;;;66.72;27.80;;;;;;;6.73;100.00;98909.69;5021461;28;20042;-55
2024/03/10 07:11:01;;;;;;;76.63;28.58;;;;;;;6.71;100.00;98913.94;5023639;28;20053;-56
2024/03/10 07:13:29;;;;;;;62.13;26.92;;;;;;;6.71;100.00;98913.94;5026799;28;20054;-52
2024/03/10 07:15:56;;;;;;;75.35;29.27;;;;;;;6.70;100.00;98918.66;5026785;28;20042;-54
2024/03/10 07:18:24;;;;;;;61.20;27.58;;;;;;;6.69;100.00;98911.59;5026061;28;21818;-56
2024/03/10 07:20:51;;;;;;;62.75;26.75;;;;;;;6.69;100.00;98916.28;5026705;28;20046;-55
2024/03/10 07:23:21;;;;;;;63.53;27.75;;;;;;;6.67;100.00;98913.88;5026621;28;20069;-56
2024/03/10 07:25:49;;;;;;;59.67;26.77;;;;;;;6.68;100.00;98920.97;5026120;28;20045;-54
2024/03/10 07:28:17;;;;;;;71.85;27.02;;;;;;;6.67;100.00;98927.63;5026586;28;20053;-54
2024/03/10 07:30:44;;;;;;;66.80;27.27;;;;;;;6.65;100.00;98927.19;5026564;28;20042;-52
2024/03/10 07:33:11;;;;;;;76.68;30.25;;;;;;;6.65;100.00;98924.44;5026101;28;20072;-56
2024/03/10 07:35:39;;;;;;;70.10;31.48;;;;;;;6.64;100.00;98931.13;5026940;28;20052;-56
2024/03/10 07:38:06;;;;;;;76.47;30.20;;;;;;;6.64;100.00;98931.13;5026413;28;21700;-57
2024/03/10 07:40:34;;;;;;;70.38;29.33;;;;;;;6.64;100.00;98936.63;5026074;28;20053;-57
2024/03/10 07:43:01;;;;;;;75.18;30.75;;;;;;;6.64;100.00;98931.13;5025847;28;20388;-57
2024/03/10 07:45:32;;;;;;;78.03;31.80;;;;;;;6.64;100.00;98931.13;5008840;28;20550;-57
2024/03/10 07:48:02;;;;;;;73.53;29.10;;;;;;;6.65;100.00;98926.41;5008900;28;20553;-58
2024/03/10 07:50:30;;;;;;;82.70;31.58;;;;;;;6.67;100.00;98935.09;5026195;28;20419;-58
2024/03/10 07:52:58;;;;;;;73.55;30.35;;;;;;;6.66;100.00;98939.81;5026313;28;20037;-56
2024/03/10 07:55:30;;;;;;;67.30;32.38;;;;;;;6.68;100.00;98933.94;5027414;28;20054;-55
2024/03/10 07:57:58;;;;;;;68.13;29.48;;;;;;;6.69;100.00;98933.59;5019910;28;20578;-57
2024/03/10 08:00:26;;;;;;;74.45;30.20;;;;;;;6.68;100.00;98936.69;5030125;28;20240;-58
2024/03/10 08:02:54;;;;;;;70.35;32.97;;;;;;;6.68;100.00;98945.72;5028785;28;20076;-58
2024/03/10 08:05:21;;;;;;;74.40;30.88;;;;;;;6.68;100.00;98951.22;5029661;28;20053;-57
2024/03/10 08:07:49;;;;;;;76.00;32.20;;;;;;;6.69;100.00;98949.28;5030963;28;20049;-57
2024/03/10 08:10:18;;;;;;;87.63;34.58;;;;;;;6.68;100.00;98942.19;5028684;28;20474;-54
2024/03/10 08:12:48;;;;;;;81.43;33.00;;;;;;;6.68;100.00;98950.44;5012497;28;20041;-57
2024/03/10 08:15:18;;;;;;;95.68;35.03;;;;;;;6.69;100.00;98943.78;5029298;28;20102;-55
2024/03/10 08:17:46;;;;;;;83.85;34.33;;;;;;;6.68;100.00;98951.22;5010973;28;20044;-58
2024/03/10 08:20:14;;;;;;;87.82;34.10;;;;;;;6.68;100.00;98948.47;5029924;28;20507;-54
2024/03/10 08:22:44;;;;;;;86.40;34.92;;;;;;;6.69;100.00;98941.81;5030171;28;20053;-56
2024/03/10 08:25:12;;;;;;;88.18;34.33;;;;;;;6.70;100.00;98950.84;5029495;28;20041;-58
2024/03/10 08:27:40;;;;;;;86.78;33.88;;;;;;;6.72;100.00;98954.06;5026396;28;20131;-55
2024/03/10 08:30:09;;;;;;;101.03;37.22;;;;;;;6.72;100.00;98952.06;5029418;28;20060;-51
2024/03/10 08:32:37;;;;;;;78.63;33.67;;;;;;;6.71;100.00;98953.25;5029856;28;20065;-57
2024/03/10 08:35:09;;;;;;;88.65;34.80;;;;;;;6.72;100.00;98954.81;5029958;28;20076;-58
2024/03/10 08:37:44;;;;;;;95.70;35.13;;;;;;;6.72;100.00;98952.06;5029811;28;20049;-54
2024/03/10 08:40:14;;;;;;;80.38;33.63;;;;;;;6.73;100.00;98950.94;5029888;28;20498;-52
2024/03/10 08:42:42;;;;;;;86.47;34.20;;;;;;;6.73;100.00;98953.69;5030118;28;20359;-55
2024/03/10 08:45:11;;;;;;;78.28;32.88;;;;;;;6.74;100.00;98948.97;5028471;28;20046;-56
2024/03/10 08:47:40;;;;;;;78.72;32.63;;;;;;;6.75;100.00;98954.09;5027646;28;20446;-54
2024/03/10 08:50:09;;;;;;;86.18;32.10;;;;;;;6.78;100.00;98958.09;5028854;28;20388;-56
2024/03/10 08:52:38;;;;;;;80.28;32.40;;;;;;;6.80;100.00;98966.00;5028693;28;20046;-56
2024/03/10 08:55:08;;;;;;;74.60;33.03;;;;;;;6.79;100.00;98967.94;5025869;28;20053;-53
2024/03/10 08:57:39;;;;;;;89.95;32.67;;;;;;;6.81;100.00;98957.38;5023636;28;20042;-54
2024/03/10 09:00:06;;;;;;;94.53;32.10;;;;;;;6.83;100.00;98960.53;5027284;28;20515;-54
2024/03/10 09:02:34;;;;;;;85.35;32.42;;;;;;;6.84;100.00;98964.88;5027932;28;20061;-55
2024/03/10 09:05:01;;;;;;;84.60;32.25;;;;;;;6.86;100.00;98972.78;5025734;28;20048;-53
2024/03/10 09:07:29;;;;;;;82.10;34.92;;;;;;;6.86;100.00;98973.56;5024834;28;20067;-57
2024/03/10 09:09:57;;;;;;;87.45;31.20;;;;;;;6.87;100.00;98960.63;5028060;28;20060;-55
2024/03/10 09:12:27;;;;;;;71.25;30.65;;;;;;;6.88;100.00;98964.97;5028637;28;20045;-54
2024/03/10 09:14:56;;;;;;;79.60;29.27;;;;;;;6.88;100.00;98973.22;5028292;28;20046;-55
2024/03/10 09:17:24;;;;;;;72.95;28.85;;;;;;;6.87;100.00;98972.41;5027279;28;20052;-51
2024/03/10 09:19:52;;;;;;;74.25;29.58;;;;;;;6.88;100.00;98965.78;5028375;28;20049;-55
2024/03/10 09:22:20;;;;;;;65.57;28.27;;;;;;;6.88;100.00;98974.03;5027403;28;20053;-60
2024/03/10 09:24:50;;;;;;;69.32;29.05;;;;;;;6.90;100.00;98976.41;5020147;28;20531;-56
2024/03/10 09:27:19;;;;;;;71.03;27.35;;;;;;;6.88;100.00;98985.03;5021769;28;20060;-55
2024/03/10 09:29:47;;;;;;;72.60;29.83;;;;;;;6.88;100.00;98974.03;5023577;28;20492;-50
2024/03/10 09:32:19;;;;;;;75.07;27.25;;;;;;;6.89;100.00;98981.09;5025280;28;20045;-55
2024/03/10 09:34:47;;;;;;;79.05;28.65;;;;;;;6.89;100.00;98986.59;5026283;28;20487;-51
2024/03/10 09:37:15;;;;;;;76.55;29.27;;;;;;;6.87;100.00;98972.41;5027695;28;20815;-53
2024/03/10 09:39:43;;;;;;;76.13;31.33;;;;;;;6.89;100.00;98983.84;5027329;28;20096;-54
2024/03/10 09:42:14;;;;;;;88.10;32.78;;;;;;;6.90;100.00;98981.91;5009755;28;20052;-53
2024/03/10 09:44:45;;;;;;;79.18;32.13;;;;;;;6.91;100.00;98972.50;5025015;28;20045;-50
2024/03/10 09:47:17;;;;;;;81.78;31.75;;;;;;;6.93;100.00;98981.19;5008876;28;20504;-52
2024/03/10 09:49:47;;;;;;;79.53;30.90;;;;;;;6.94;100.00;98971.75;5033043;28;20045;-53
2024/03/10 09:52:15;;;;;;;64.53;30.45;;;;;;;6.94;100.00;98982.75;5022159;28;20380;-51
2024/03/10 09:54:42;;;;;;;83.65;28.70;;;;;;;6.92;100.00;98974.06;5022424;28;20061;-53
2024/03/10 09:57:10;;;;;;;63.58;27.15;;;;;;;6.93;100.00;98975.69;5027912;28;20042;-49
2024/03/10 09:59:44;;;;;;;66.07;28.55;;;;;;;6.91;100.00;98978.00;4997314;28;20060;-51
2024/03/10 10:02:35;;;;;;;62.42;23.95;;;;;;;6.89;100.00;98978.34;5027929;28;20077;-50
2024/03/10 10:05:14;;;;;;;58.80;24.65;;;;;;;6.90;100.00;98976.41;5025037;28;20518;-49
2024/03/10 10:07:41;;;;;;;58.65;23.10;;;;;;;6.90;100.00;98973.66;5028370;28;20041;-53
2024/03/10 10:10:09;;;;;;;55.13;22.02;;;;;;;6.88;100.00;98973.22;5032493;28;20060;-55
2024/03/10 10:12:40;;;;;;;49.20;20.80;;;;;;;6.88;100.00;98978.72;5031338;28;20530;-49
2024/03/10 10:15:08;;;;;;;50.03;21.10;;;;;;;6.87;100.00;98972.41;5027875;28;20042;-47
2024/03/10 10:17:35;;;;;;;45.10;16.73;;;;;;;6.87;100.00;98974.38;5027122;28;20530;-52
2024/03/10 10:20:07;;;;;;;48.00;19.95;;;;;;;6.87;100.00;98979.88;5027624;28;20042;-53
2024/03/10 10:22:35;;;;;;;42.38;17.92;;;;;;;6.88;100.00;98978.72;5027339;28;20531;-49
2024/03/10 10:25:04;;;;;;;41.15;18.70;;;;;;;6.88;100.00;98984.22;5010311;28;20407;-52
2024/03/10 10:27:49;;;;;;;52.92;19.98;;;;;;;6.88;100.00;98978.72;5031911;28;20053;-50
2024/03/10 10:30:22;;;;;;;52.42;21.55;;;;;;;6.91;100.00;98986.25;5025701;28;20726;-53
2024/03/10 10:33:04;;;;;;;48.33;17.40;;;;;;;6.91;100.00;98989.00;5021155;28;20118;-52
2024/03/10 10:35:38;;;;;;;;;;;;;;;6.89;100.00;98989.34;5015824;28;20057;-51
2024/03/10 10:38:13;;;;;;;38.78;15.82;;;;;;;6.89;100.00;98980.28;5026365;28;19920;-53
2024/03/10 10:40:54;;;;;;;47.10;17.10;;;;;;;6.89;100.00;98986.59;5021750;28;20164;-49
2024/03/10 10:43:23;;;;;;;46.42;18.77;;;;;;;6.90;100.00;98979.16;5026179;28;20123;-53
2024/03/10 10:45:51;;;;;;;42.97;18.23;;;;;;;6.91;100.00;98983.50;5008963;28;20503;-49
2024/03/10 10:48:20;;;;;;;42.83;19.42;;;;;;;6.92;100.00;98983.13;5024578;28;20072;-49
2024/03/10 10:50:51;;;;;;;49.15;17.63;;;;;;;6.93;100.00;98992.97;5022968;28;20070;-47
2024/03/10 10:53:18;;;;;;;39.10;15.98;;;;;;;6.94;100.00;98982.75;5024638;28;20056;-51
2024/03/10 10:55:46;;;;;;;46.45;18.17;;;;;;;6.95;100.00;98978.84;5003343;28;20045;-51
2024/03/10 10:58:18;;;;;;;43.58;18.88;;;;;;;6.95;100.00;98989.84;5031542;28;20463;-50
2024/03/10 11:00:50;;;;;;;44.65;16.52;;;;;;;6.95;100.00;98979.66;5015114;28;20053;-46
2024/03/10 11:03:24;;;;;;;54.20;17.63;;;;;;;6.99;100.00;98985.22;5034217;28;20049;-52
2024/03/10 11:06:02;;;;;;;46.08;15.50;;;;;;;6.99;100.00;98976.97;5028845;28;20077;-48
2024/03/10 11:08:33;;;;;;;37.58;14.60;;;;;;;7.02;100.00;98973.47;5025077;28;20057;-48
2024/03/10 11:11:01;;;;;;;47.33;15.57;;;;;;;7.03;100.00;98975.88;5024280;28;20404;-48
2024/03/10 11:13:29;;;;;;;43.50;15.07;;;;;;;7.04;100.00;98974.69;5026303;28;20048;-49
2024/03/10 11:16:11;;;;;;;45.88;17.85;;;;;;;7.06;100.00;98977.91;5027029;28;20049;-52
2024/03/10 11:18:42;;;;;;;45.35;16.30;;;;;;;7.09;100.00;98973.63;5026550;28;20065;-52
2024/03/10 11:21:17;;;;;;;43.25;15.57;;;;;;;7.10;100.00;98984.25;5024403;28;20691;-50
2024/03/10 11:23:50;;;;;;;44.58;15.23;;;;;;;7.11;100.00;98977.59;5009816;28;20048;-50
2024/03/10 11:26:20;;;;;;;53.05;17.25;;;;;;;7.15;100.00;98980.41;5025782;28;20056;-48
2024/03/10 11:28:52;;;;;;;50.78;14.98;;;;;;;7.16;100.00;98979.25;5026741;28;20048;-53
2024/03/10 11:31:22;;;;;;;40.97;16.33;;;;;;;7.18;100.00;98979.66;5029769;28;20061;-56
2024/03/10 11:33:51;;;;;;;46.33;15.00;;;;;;;7.22;100.00;98980.53;5029065;28;20125;-52
2024/03/10 11:36:22;;;;;;;39.13;13.93;;;;;;;7.21;100.00;98982.50;5030014;28;20046;-55
2024/03/10 11:38:50;;;;;;;43.13;12.52;;;;;;;7.21;100.00;98976.19;5028339;28;20045;-55
2024/03/10 11:41:19;;;;;;;36.95;13.02;;;;;;;7.22;100.00;98981.34;5011509;28;20049;-57
2024/03/10 11:43:47;;;;;;;37.70;11.77;;;;;;;7.22;100.00;98975.03;5029909;28;20076;-55
2024/03/10 11:46:16;;;;;;;29.75;11.77;;;;;;;7.23;100.00;98979.38;5030251;28;20709;-53